Terminal Aerodrome Forecast
Issued by NWS

Home | Current Version | Previous Version | Text Only | Print | Product List | Glossary On
Versions: 1 2 3 4 5 6 7 8 9 10 11 12 13 14 15 16 17 18 19 20 21 22 23 24 25 26 27 28 29 30 31 32 33 34 35 36 37 38 39 40 41 42 43 44 45 46 47 48 49 50
369
FTUS42 KRAH 011212 CCA
TAFRWI
TAF COR
KRWI 011212Z 0112/0212 15007KT 4SM BR OVC005
      TEMPO 0112/0114 6SM -RA BR OVC007
     FM011400 18008G16KT P6SM VCSH BKN012 OVC150
      TEMPO 0114/0117 3SM -TSRA BR SCT015 BKN025CB OVC150
     FM011700 20012G19KT P6SM VCSH SCT030 BKN150
     FM020800 22007KT P6SM BKN007 BKN250=

USA.gov is the U.S. government's official web portal to all federal, state and local government web resources and services.